Hlavní strana
METAR-TAF:

METAR-TAF

Letiště :

Vojens, Dánsko

zeměpisná šířka: 55-14N, zeměpisná délka: 009-16E, výška: 43 m

Aktuální stav počasí

Zpráva byla vytvořena před 23 minutami, v 15:50 UTC
Západojihozápadní vítr 10 kt
Teplota 7°C
Vlhkost vzduchu 93%
Tlak 1028 hPa
Viditelnost 10 km a více
Oblačno až skoro zataženo ve výšce 400 ft

METAR: EKSP 201550Z 25010KT 9999 BKN004 07/06 Q1028

Čas: 17:13 (16:13 UTC)

Předpověď počasí

Zpráva byla vytvořena před 29 minutami, v 15:44 UTC
Předpověď platná od 20 v 15 UTC do 21 v 12 UTC
Západní vítr 10 kt
Viditelnost 10 km a více
Oblačno až skoro zataženo ve výšce 800 ft
Dočasný
od 20 v 15 UTC do 20 v 18 UTC
Viditelnost: 3000 m
Oblačno až skoro zataženo ve výšce 300 ft
kouřmo
Dočasný
od 20 v 18 UTC do 21 v 12 UTC
Viditelnost: 1800 m
Oblačno až skoro zataženo ve výšce 200 ft
kouřmo

TAF: EKSP 201544Z 2015/2112 26010KT 9999 BKN008 TEMPO 2015/2018 3000 BR BKN003 TEMPO 2018/2112 1800 BR BKN002

Stav a předpovědi počasí z více než 4 000 letišť (zprávy METAR a TAF).

Červené a žluté tečky na mapě představují dostupné meteorologické stanice.

Když kurzor umístíte na tečku, zobrazí se název stanice.

Pak kliknutím zobrazíte stav a předpověď počasí.

Chcete-li změnit mapu, kliknutím na zelené tlačítko se znaménkem +mapu přiblížíte, kliknutím na zelené tlačítko se znaménkem – mapu oddálíte a kliknutím na zelené šipky přejdete na sousední mapy.


METAR-TAF: